Time;durP1;ratioP1;P1;durP2;ratioP2;P2;SDS_P1;SDS_P2;PMS_P1;PMS_P2;Temp;Humidity;BMP_temperature;BMP_pressure;BME280_temperature;BME280_humidity;BME280_pressure;Samples;Min_cycle;Max_cycle;Signal;HPM_P1;HPM_P2
2023/03/22 18:32:41;;;;;;;;;;;;;;;;;;4996855;28;20607;-82
2023/03/22 18:35:08;;;;;;;7.13;4.45;;;;;;;;;;4968042;28;21916;-80
2023/03/22 18:37:41;;;;;;;10.18;4.90;;;;;;;;;;4968586;28;20179;-81
2023/03/22 18:40:12;;;;;;;10.70;4.78;;;;;;;;;;4982186;28;20064;-80
2023/03/22 18:42:44;;;;;;;11.10;3.92;;;;;;;;;;4982009;28;20395;-80
2023/03/22 18:45:14;;;;;;;8.05;3.97;;;;;;;;;;4999570;28;20034;-80
2023/03/22 18:47:47;;;;;;;7.57;3.70;;;;;;;;;;4996119;28;20044;-80
2023/03/22 18:50:14;;;;;;;9.18;3.78;;;;;;;;;;4968365;28;20042;-81
2023/03/22 18:52:45;;;;;;;10.18;3.90;;;;;;;;;;4933590;28;20806;-80
2023/03/22 18:55:11;;;;;;;10.18;4.50;;;;;;;;;;5034433;28;20044;-81
2023/03/22 18:57:40;;;;;;;6.55;3.65;;;;;;;;;;4947236;28;20050;-81
2023/03/22 19:00:15;;;;;;;9.73;4.10;;;;;;;;;;4965461;28;20045;-80
2023/03/22 19:02:43;;;;;;;5.72;3.55;;;;;;;;;;4943285;28;20049;-80
2023/03/22 19:05:09;;;;;;;6.25;3.47;;;;;;;;;;5033961;28;20042;-80
2023/03/22 19:07:37;;;;;;;6.45;3.40;;;;;;;;;;5007734;28;20046;-80
2023/03/22 19:10:04;;;;;;;11.20;3.55;;;;;;;;;;4968807;28;20038;-80
2023/03/22 19:12:38;;;;;;;7.68;3.60;;;;;;;;;;4980790;28;20049;-80
2023/03/22 19:15:06;;;;;;;10.20;3.60;;;;;;;;;;4980838;28;20042;-80
2023/03/22 19:17:33;;;;;;;8.18;3.83;;;;;;;;;;4997029;28;20050;-80
2023/03/22 19:20:00;;;;;;;5.40;3.40;;;;;;;;;;4979631;28;20045;-81
2023/03/22 19:22:27;;;;;;;7.32;3.55;;;;;;;;;;4971222;28;20419;-81
2023/03/22 19:24:53;;;;;;;7.00;3.20;;;;;;;;;;4968109;28;20050;-81
2023/03/22 19:27:25;;;;;;;5.82;3.20;;;;;;;;;;4989751;28;20045;-81
2023/03/22 19:29:54;;;;;;;7.63;3.20;;;;;;;;;;4967418;28;20413;-81
2023/03/22 19:32:21;;;;;;;7.75;3.30;;;;;;;;;;4964780;28;20060;-81
2023/03/22 19:34:47;;;;;;;5.95;3.08;;;;;;;;;;4966732;28;20073;-80
2023/03/22 19:37:13;;;;;;;6.95;3.63;;;;;;;;;;4963238;28;20133;-81
2023/03/22 19:39:39;;;;;;;5.45;3.03;;;;;;;;;;4985103;28;20145;-81
2023/03/22 19:42:05;;;;;;;5.20;2.72;;;;;;;;;;4963032;28;20823;-81
2023/03/22 19:44:31;;;;;;;5.85;2.90;;;;;;;;;;5038267;28;20050;-81
2023/03/22 19:46:57;;;;;;;5.57;2.78;;;;;;;;;;4968752;28;20049;-80
2023/03/22 19:49:26;;;;;;;8.55;3.05;;;;;;;;;;4949658;28;20051;-80
2023/03/22 19:51:54;;;;;;;5.90;3.20;;;;;;;;;;4971218;28;20445;-80
2023/03/22 19:54:21;;;;;;;6.90;2.97;;;;;;;;;;4969103;28;20034;-81
2023/03/22 19:56:53;;;;;;;7.00;3.10;;;;;;;;;;4981911;28;20098;-80
2023/03/22 19:59:20;;;;;;;6.32;3.08;;;;;;;;;;4969237;28;20041;-80
2023/03/22 20:01:51;;;;;;;8.48;2.97;;;;;;;;;;4996874;28;20043;-81
2023/03/22 20:04:17;;;;;;;4.93;2.72;;;;;;;;;;4970750;28;20083;-81
2023/03/22 20:07:09;;;;;;;5.63;3.45;;;;;;;;;;4972455;28;20087;-80
2023/03/22 20:09:36;;;;;;;6.45;2.88;;;;;;;;;;4926244;28;20442;-81
2023/03/22 20:12:03;;;;;;;6.45;2.92;;;;;;;;;;4952924;28;20088;-81
2023/03/22 20:14:29;;;;;;;7.13;3.00;;;;;;;;;;4967053;28;20047;-80
2023/03/22 20:16:55;;;;;;;5.90;2.63;;;;;;;;;;4981024;28;20484;-81
2023/03/22 20:19:22;;;;;;;7.47;2.95;;;;;;;;;;4967501;28;20039;-81
2023/03/22 20:21:49;;;;;;;5.10;2.60;;;;;;;;;;4933222;28;20498;-81
2023/03/22 20:24:21;;;;;;;7.60;3.28;;;;;;;;;;4998213;28;20037;-81
2023/03/22 20:26:47;;;;;;;7.15;3.00;;;;;;;;;;4967512;28;20392;-81
2023/03/22 20:29:13;;;;;;;8.43;2.50;;;;;;;;;;4967919;28;20507;-81
2023/03/22 20:31:39;;;;;;;6.10;2.78;;;;;;;;;;4950459;28;20041;-82
2023/03/22 20:34:05;;;;;;;8.45;2.70;;;;;;;;;;4930084;28;20074;-81
2023/03/22 20:36:31;;;;;;;7.82;3.13;;;;;;;;;;4966061;28;20125;-80
2023/03/22 20:39:04;;;;;;;6.45;2.45;;;;;;;;;;4966576;28;20579;-80
2023/03/22 20:41:32;;;;;;;6.28;2.47;;;;;;;;;;4956293;28;20049;-81
2023/03/22 20:46:51;;;;;;;7.05;3.42;;;;;;;;;;4945974;28;20042;-81
2023/03/22 20:49:17;;;;;;;6.45;3.22;;;;;;;;;;4950642;28;20058;-81
2023/03/22 20:51:43;;;;;;;9.43;2.97;;;;;;;;;;4952521;28;20038;-81
2023/03/22 20:54:09;;;;;;;7.28;3.10;;;;;;;;;;4978701;28;20408;-81
2023/03/22 20:56:35;;;;;;;8.57;3.55;;;;;;;;;;4980955;28;20058;-81
2023/03/22 20:59:01;;;;;;;6.70;3.28;;;;;;;;;;4970102;28;20049;-81
2023/03/22 21:01:27;;;;;;;7.82;3.38;;;;;;;;;;4980320;28;20038;-81
2023/03/22 21:03:59;;;;;;;6.75;3.30;;;;;;;;;;4950045;28;20043;-81
2023/03/22 21:06:27;;;;;;;7.10;3.08;;;;;;;;;;4981852;28;20397;-81
2023/03/22 21:08:53;;;;;;;11.63;3.63;;;;;;;;;;4956630;28;20038;-81
2023/03/22 21:11:19;;;;;;;8.13;3.75;;;;;;;;;;4966774;28;20035;-81
2023/03/22 21:13:47;;;;;;;7.65;3.85;;;;;;;;;;4977813;28;20034;-81
2023/03/22 21:19:07;;;;;;;6.85;3.33;;;;;;;;;;4998752;28;20790;-81
2023/03/22 21:21:33;;;;;;;9.07;3.15;;;;;;;;;;4971746;28;20066;-81
2023/03/22 21:23:59;;;;;;;6.55;3.30;;;;;;;;;;4964109;28;20038;-81
2023/03/22 21:26:26;;;;;;;5.95;3.17;;;;;;;;;;4966771;28;20061;-81
2023/03/22 21:28:53;;;;;;;6.85;3.47;;;;;;;;;;4964011;28;20038;-81
2023/03/22 21:31:21;;;;;;;8.30;3.70;;;;;;;;;;4965080;28;20035;-81
2023/03/22 21:33:47;;;;;;;10.40;3.97;;;;;;;;;;4965373;28;20099;-81
2023/03/22 21:36:16;;;;;;;9.00;3.75;;;;;;;;;;4965934;28;20046;-81
2023/03/22 21:38:52;;;;;;;6.07;3.25;;;;;;;;;;4968938;28;20549;-81
2023/03/22 21:41:21;;;;;;;6.32;3.67;;;;;;;;;;4981890;28;20030;-81
2023/03/22 21:43:54;;;;;;;10.75;3.60;;;;;;;;;;4961832;28;20080;-81
2023/03/22 21:46:28;;;;;;;8.95;3.55;;;;;;;;;;4946495;28;20042;-80
2023/03/22 21:48:59;;;;;;;8.70;4.10;;;;;;;;;;4964244;28;20038;-81
2023/03/22 21:51:27;;;;;;;10.27;4.60;;;;;;;;;;4966793;28;20100;-80
2023/03/22 21:54:04;;;;;;;8.68;4.80;;;;;;;;;;4948280;28;20087;-81
2023/03/22 21:56:32;;;;;;;9.85;4.60;;;;;;;;;;4966040;28;20046;-80
2023/03/22 21:59:02;;;;;;;11.88;4.43;;;;;;;;;;4997658;28;20116;-81
2023/03/22 22:01:33;;;;;;;10.00;4.38;;;;;;;;;;4963934;28;20054;-81
2023/03/22 22:04:29;;;;;;;10.10;4.32;;;;;;;;;;4994946;28;20157;-80
2023/03/22 22:06:55;;;;;;;7.90;4.15;;;;;;;;;;4949268;28;20046;-80
2023/03/22 22:09:21;;;;;;;7.45;3.65;;;;;;;;;;4983641;28;20099;-80
2023/03/22 22:11:53;;;;;;;10.73;4.10;;;;;;;;;;4967410;28;20035;-80
2023/03/22 22:14:21;;;;;;;9.38;4.70;;;;;;;;;;4966282;28;20038;-81
2023/03/22 22:16:53;;;;;;;9.52;4.18;;;;;;;;;;4950139;28;20520;-80
2023/03/22 22:19:19;;;;;;;10.02;4.10;;;;;;;;;;4967731;28;20496;-80
2023/03/22 22:21:45;;;;;;;11.30;4.53;;;;;;;;;;4944199;28;20039;-81
2023/03/22 22:24:37;;;;;;;8.40;3.85;;;;;;;;;;4983150;28;20034;-81
2023/03/22 22:27:03;;;;;;;9.35;3.97;;;;;;;;;;4966865;28;20049;-80
2023/03/22 22:29:55;;;;;;;8.45;4.00;;;;;;;;;;4950608;28;20496;-81
2023/03/22 22:32:25;;;;;;;12.45;3.60;;;;;;;;;;4950421;28;20057;-80
2023/03/22 22:34:51;;;;;;;9.80;4.18;;;;;;;;;;4951408;28;20069;-80
2023/03/22 22:37:17;;;;;;;6.20;3.33;;;;;;;;;;4964326;28;20129;-80
2023/03/22 22:39:43;;;;;;;10.13;3.47;;;;;;;;;;4969934;28;20567;-80
2023/03/22 22:42:09;;;;;;;9.57;3.63;;;;;;;;;;4946220;28;20027;-81
2023/03/22 22:44:41;;;;;;;8.00;3.70;;;;;;;;;;4940908;28;20403;-81
2023/03/22 22:47:07;;;;;;;10.75;3.80;;;;;;;;;;4965757;28;20046;-80
2023/03/22 22:49:39;;;;;;;8.82;3.25;;;;;;;;;;4968739;28;20042;-81
2023/03/22 22:52:36;;;;;;;6.32;3.67;;;;;;;;;;4968777;28;20042;-81
2023/03/22 22:55:27;;;;;;;10.60;3.50;;;;;;;;;;4981782;28;20030;-81
2023/03/22 22:57:53;;;;;;;6.05;3.15;;;;;;;;;;4967084;28;20046;-80
2023/03/22 23:03:17;;;;;;;7.80;3.30;;;;;;;;;;4996152;28;20066;-80
2023/03/22 23:05:44;;;;;;;9.30;3.28;;;;;;;;;;4960765;28;20049;-80
2023/03/22 23:08:11;;;;;;;8.40;2.90;;;;;;;;;;4959776;28;20046;-80
2023/03/22 23:10:41;;;;;;;5.53;2.83;;;;;;;;;;4964536;28;20053;-80
2023/03/22 23:13:36;;;;;;;5.60;3.28;;;;;;;;;;4978844;28;20046;-80
2023/03/22 23:16:04;;;;;;;10.02;3.60;;;;;;;;;;4950779;28;20042;-80
2023/03/22 23:18:31;;;;;;;7.47;3.30;;;;;;;;;;4966531;28;20458;-81
2023/03/22 23:21:26;;;;;;;8.32;3.80;;;;;;;;;;4987924;28;20034;-80
2023/03/22 23:23:53;;;;;;;11.30;3.88;;;;;;;;;;4951860;28;20046;-80
2023/03/22 23:26:21;;;;;;;9.32;3.75;;;;;;;;;;4952050;28;20481;-80
2023/03/22 23:28:52;;;;;;;8.50;3.60;;;;;;;;;;4954344;28;20042;-80
2023/03/22 23:31:20;;;;;;;8.32;3.70;;;;;;;;;;4977420;28;20039;-80
2023/03/22 23:33:48;;;;;;;8.65;3.95;;;;;;;;;;4966957;28;20066;-81
2023/03/22 23:36:18;;;;;;;9.45;3.47;;;;;;;;;;4954523;28;20187;-81
2023/03/22 23:38:50;;;;;;;7.28;3.65;;;;;;;;;;4950388;28;20048;-80
2023/03/22 23:41:23;;;;;;;9.00;4.10;;;;;;;;;;4952285;28;20039;-80
2023/03/22 23:43:50;;;;;;;8.57;4.53;;;;;;;;;;4969713;28;20095;-80
2023/03/22 23:46:22;;;;;;;8.20;4.88;;;;;;;;;;4951063;28;20048;-80
2023/03/22 23:48:50;;;;;;;8.85;3.60;;;;;;;;;;4966054;28;20042;-80
2023/03/22 23:51:19;;;;;;;7.75;3.60;;;;;;;;;;4948729;28;20034;-80
2023/03/22 23:53:47;;;;;;;7.32;3.53;;;;;;;;;;4939386;28;20046;-81
2023/03/22 23:56:16;;;;;;;8.35;3.78;;;;;;;;;;4950598;28;20057;-80
2023/03/22 23:58:44;;;;;;;7.40;3.95;;;;;;;;;;4964829;28;20034;-81
